sensor_id;sensor_type;location;lat;lon;timestamp;temperature;humidity
16968;DHT22;64862;54.398;10.126;2024-03-08T00:09:23;4.70;99.90
16968;DHT22;64862;54.398;10.126;2024-03-08T00:19:29;4.60;99.90
16968;DHT22;64862;54.398;10.126;2024-03-08T00:29:31;4.60;99.90
16968;DHT22;64862;54.398;10.126;2024-03-08T00:39:34;4.80;99.90
16968;DHT22;64862;54.398;10.126;2024-03-08T00:49:36;4.70;99.90
16968;DHT22;64862;54.398;10.126;2024-03-08T00:59:40;4.70;99.90
16968;DHT22;64862;54.398;10.126;2024-03-08T01:09:42;4.70;99.90
16968;DHT22;64862;54.398;10.126;2024-03-08T01:19:45;4.60;99.90
16968;DHT22;64862;54.398;10.126;2024-03-08T01:29:47;4.70;99.90
16968;DHT22;64862;54.398;10.126;2024-03-08T01:39:51;4.70;99.90
16968;DHT22;64862;54.398;10.126;2024-03-08T01:49:53;4.70;99.90
16968;DHT22;64862;54.398;10.126;2024-03-08T01:59:57;4.60;99.90
16968;DHT22;64862;54.398;10.126;2024-03-08T02:09:59;4.60;99.90
16968;DHT22;64862;54.398;10.126;2024-03-08T02:20:03;4.60;99.90
16968;DHT22;64862;54.398;10.126;2024-03-08T02:30:08;4.60;99.90
16968;DHT22;64862;54.398;10.126;2024-03-08T02:40:11;4.70;99.90
16968;DHT22;64862;54.398;10.126;2024-03-08T02:50:15;4.70;99.90
16968;DHT22;64862;54.398;10.126;2024-03-08T03:00:18;4.60;99.90
16968;DHT22;64862;54.398;10.126;2024-03-08T03:10:22;4.90;99.90
16968;DHT22;64862;54.398;10.126;2024-03-08T03:20:24;4.80;99.90
16968;DHT22;64862;54.398;10.126;2024-03-08T03:30:34;4.70;99.90
16968;DHT22;64862;54.398;10.126;2024-03-08T03:40:36;4.70;99.90
16968;DHT22;64862;54.398;10.126;2024-03-08T03:50:40;4.90;99.90
16968;DHT22;64862;54.398;10.126;2024-03-08T04:00:42;5.00;99.90
16968;DHT22;64862;54.398;10.126;2024-03-08T04:10:46;5.00;99.90
16968;DHT22;64862;54.398;10.126;2024-03-08T04:20:48;4.80;99.90
16968;DHT22;64862;54.398;10.126;2024-03-08T04:30:52;4.90;99.90
16968;DHT22;64862;54.398;10.126;2024-03-08T04:40:55;4.90;99.90
16968;DHT22;64862;54.398;10.126;2024-03-08T04:50:58;5.00;99.90
16968;DHT22;64862;54.398;10.126;2024-03-08T05:01:00;4.80;99.90
16968;DHT22;64862;54.398;10.126;2024-03-08T05:11:04;4.70;99.90
16968;DHT22;64862;54.398;10.126;2024-03-08T05:21:07;4.80;99.90
16968;DHT22;64862;54.398;10.126;2024-03-08T05:31:18;4.70;99.90
16968;DHT22;64862;54.398;10.126;2024-03-08T05:41:21;4.70;99.90
16968;DHT22;64862;54.398;10.126;2024-03-08T05:51:25;4.60;99.90
16968;DHT22;64862;54.398;10.126;2024-03-08T06:01:28;4.70;99.90
16968;DHT22;64862;54.398;10.126;2024-03-08T06:11:31;4.90;99.90
16968;DHT22;64862;54.398;10.126;2024-03-08T06:21:33;4.70;99.90
16968;DHT22;64862;54.398;10.126;2024-03-08T06:31:37;4.80;99.90
16968;DHT22;64862;54.398;10.126;2024-03-08T06:41:40;4.90;99.90
16968;DHT22;64862;54.398;10.126;2024-03-08T06:51:44;4.80;99.90
16968;DHT22;64862;54.398;10.126;2024-03-08T07:01:46;4.90;99.90
16968;DHT22;64862;54.398;10.126;2024-03-08T07:11:50;5.00;99.90
16968;DHT22;64862;54.398;10.126;2024-03-08T07:21:55;5.00;99.90
16968;DHT22;64862;54.398;10.126;2024-03-08T07:31:58;5.10;99.90
16968;DHT22;64862;54.398;10.126;2024-03-08T07:42:12;5.20;99.90
16968;DHT22;64862;54.398;10.126;2024-03-08T07:52:16;5.30;99.90
16968;DHT22;64862;54.398;10.126;2024-03-08T08:02:19;5.30;99.90
16968;DHT22;64862;54.398;10.126;2024-03-08T08:12:22;5.30;99.90
16968;DHT22;64862;54.398;10.126;2024-03-08T08:22:24;5.20;99.90
16968;DHT22;64862;54.398;10.126;2024-03-08T08:32:27;5.20;99.90
16968;DHT22;64862;54.398;10.126;2024-03-08T08:42:29;5.40;99.90
16968;DHT22;64862;54.398;10.126;2024-03-08T08:52:33;5.30;99.90
16968;DHT22;64862;54.398;10.126;2024-03-08T09:02:35;5.50;99.90
16968;DHT22;64862;54.398;10.126;2024-03-08T09:12:39;5.40;99.90
16968;DHT22;64862;54.398;10.126;2024-03-08T09:22:43;5.60;99.90
16968;DHT22;64862;54.398;10.126;2024-03-08T09:32:48;5.60;99.90
16968;DHT22;64862;54.398;10.126;2024-03-08T09:42:51;5.60;99.90
16968;DHT22;64862;54.398;10.126;2024-03-08T09:52:55;5.50;99.90
16968;DHT22;64862;54.398;10.126;2024-03-08T10:03:01;5.40;99.90
16968;DHT22;64862;54.398;10.126;2024-03-08T10:13:06;5.50;99.90
16968;DHT22;64862;54.398;10.126;2024-03-08T10:23:09;5.40;99.90
16968;DHT22;64862;54.398;10.126;2024-03-08T10:33:12;5.40;99.90
16968;DHT22;64862;54.398;10.126;2024-03-08T10:43:18;5.50;99.90
16968;DHT22;64862;54.398;10.126;2024-03-08T10:53:27;5.50;99.90
16968;DHT22;64862;54.398;10.126;2024-03-08T11:03:45;5.60;99.90
16968;DHT22;64862;54.398;10.126;2024-03-08T11:13:50;5.70;99.90
16968;DHT22;64862;54.398;10.126;2024-03-08T11:23:59;5.80;99.90
16968;DHT22;64862;54.398;10.126;2024-03-08T11:34:03;6.00;99.90
16968;DHT22;64862;54.398;10.126;2024-03-08T11:44:06;6.00;99.90
16968;DHT22;64862;54.398;10.126;2024-03-08T11:54:12;6.00;99.90
16968;DHT22;64862;54.398;10.126;2024-03-08T12:04:15;5.90;99.90
16968;DHT22;64862;54.398;10.126;2024-03-08T12:14:19;5.90;99.90
16968;DHT22;64862;54.398;10.126;2024-03-08T12:24:21;5.70;99.90
16968;DHT22;64862;54.398;10.126;2024-03-08T12:34:25;5.80;99.90
16968;DHT22;64862;54.398;10.126;2024-03-08T12:44:27;5.70;99.90
16968;DHT22;64862;54.398;10.126;2024-03-08T12:54:31;5.80;99.90
16968;DHT22;64862;54.398;10.126;2024-03-08T13:04:34;5.70;99.90
16968;DHT22;64862;54.398;10.126;2024-03-08T13:14:40;5.70;99.90
16968;DHT22;64862;54.398;10.126;2024-03-08T13:24:42;5.70;99.90
16968;DHT22;64862;54.398;10.126;2024-03-08T13:34:47;5.70;99.90
16968;DHT22;64862;54.398;10.126;2024-03-08T13:44:51;5.60;99.90
16968;DHT22;64862;54.398;10.126;2024-03-08T13:54:54;5.50;99.90
16968;DHT22;64862;54.398;10.126;2024-03-08T14:04:56;5.40;99.90
16968;DHT22;64862;54.398;10.126;2024-03-08T14:15:04;5.30;99.90
16968;DHT22;64862;54.398;10.126;2024-03-08T14:25:07;5.30;99.90
16968;DHT22;64862;54.398;10.126;2024-03-08T14:35:18;5.30;99.90
16968;DHT22;64862;54.398;10.126;2024-03-08T14:45:21;5.30;99.90
16968;DHT22;64862;54.398;10.126;2024-03-08T14:55:26;5.50;99.90
16968;DHT22;64862;54.398;10.126;2024-03-08T15:05:28;5.60;99.90
16968;DHT22;64862;54.398;10.126;2024-03-08T15:15:34;5.70;99.90
16968;DHT22;64862;54.398;10.126;2024-03-08T15:25:36;5.40;99.90
16968;DHT22;64862;54.398;10.126;2024-03-08T15:35:41;5.30;99.90
16968;DHT22;64862;54.398;10.126;2024-03-08T15:45:48;5.30;99.90
16968;DHT22;64862;54.398;10.126;2024-03-08T15:55:52;5.30;99.90
16968;DHT22;64862;54.398;10.126;2024-03-08T16:05:54;5.30;99.90
16968;DHT22;64862;54.398;10.126;2024-03-08T16:15:57;5.40;99.90
16968;DHT22;64862;54.398;10.126;2024-03-08T16:25:59;5.30;99.90
16968;DHT22;64862;54.398;10.126;2024-03-08T16:36:04;5.30;99.90
16968;DHT22;64862;54.398;10.126;2024-03-08T16:46:06;5.30;99.90
16968;DHT22;64862;54.398;10.126;2024-03-08T16:56:11;5.30;99.90
16968;DHT22;64862;54.398;10.126;2024-03-08T17:06:13;5.30;99.90
16968;DHT22;64862;54.398;10.126;2024-03-08T17:16:17;5.10;99.90
16968;DHT22;64862;54.398;10.126;2024-03-08T17:26:24;5.10;99.90
16968;DHT22;64862;54.398;10.126;2024-03-08T17:36:28;5.10;99.90
16968;DHT22;64862;54.398;10.126;2024-03-08T17:46:30;5.00;99.90
16968;DHT22;64862;54.398;10.126;2024-03-08T17:56:35;4.90;99.90
16968;DHT22;64862;54.398;10.126;2024-03-08T18:06:37;5.00;99.90
16968;DHT22;64862;54.398;10.126;2024-03-08T18:16:43;5.00;99.90
16968;DHT22;64862;54.398;10.126;2024-03-08T18:26:45;5.10;99.90
16968;DHT22;64862;54.398;10.126;2024-03-08T18:36:50;5.10;99.90
16968;DHT22;64862;54.398;10.126;2024-03-08T18:46:52;5.10;99.90
16968;DHT22;64862;54.398;10.126;2024-03-08T18:56:58;5.00;99.90
16968;DHT22;64862;54.398;10.126;2024-03-08T19:07:02;5.10;99.90
16968;DHT22;64862;54.398;10.126;2024-03-08T19:17:07;5.10;99.90
16968;DHT22;64862;54.398;10.126;2024-03-08T19:27:13;5.20;99.90
16968;DHT22;64862;54.398;10.126;2024-03-08T19:37:17;5.10;99.90
16968;DHT22;64862;54.398;10.126;2024-03-08T19:47:20;5.00;99.90
16968;DHT22;64862;54.398;10.126;2024-03-08T19:57:24;5.00;99.90
16968;DHT22;64862;54.398;10.126;2024-03-08T20:07:28;5.00;99.90
16968;DHT22;64862;54.398;10.126;2024-03-08T20:17:31;4.90;99.90
16968;DHT22;64862;54.398;10.126;2024-03-08T20:27:33;4.90;99.90
16968;DHT22;64862;54.398;10.126;2024-03-08T20:37:41;5.00;99.90
16968;DHT22;64862;54.398;10.126;2024-03-08T20:47:43;4.90;99.90
16968;DHT22;64862;54.398;10.126;2024-03-08T20:57:48;5.00;99.90
16968;DHT22;64862;54.398;10.126;2024-03-08T21:07:50;5.00;99.90
16968;DHT22;64862;54.398;10.126;2024-03-08T21:17:54;5.00;99.90
16968;DHT22;64862;54.398;10.126;2024-03-08T21:27:57;5.00;99.90
16968;DHT22;64862;54.398;10.126;2024-03-08T21:38:03;4.90;99.90
16968;DHT22;64862;54.398;10.126;2024-03-08T21:48:08;4.80;99.90
16968;DHT22;64862;54.398;10.126;2024-03-08T21:58:11;4.80;99.90
16968;DHT22;64862;54.398;10.126;2024-03-08T22:08:13;4.80;99.90
16968;DHT22;64862;54.398;10.126;2024-03-08T22:18:17;4.80;99.90
16968;DHT22;64862;54.398;10.126;2024-03-08T22:28:19;4.80;99.90
16968;DHT22;64862;54.398;10.126;2024-03-08T22:38:27;4.70;99.90
16968;DHT22;64862;54.398;10.126;2024-03-08T22:48:31;4.70;99.90
16968;DHT22;64862;54.398;10.126;2024-03-08T22:58:35;4.70;99.90
16968;DHT22;64862;54.398;10.126;2024-03-08T23:08:37;4.60;99.90
16968;DHT22;64862;54.398;10.126;2024-03-08T23:18:43;4.60;99.90
16968;DHT22;64862;54.398;10.126;2024-03-08T23:28:45;4.60;99.90
16968;DHT22;64862;54.398;10.126;2024-03-08T23:38:49;4.50;99.90
16968;DHT22;64862;54.398;10.126;2024-03-08T23:48:51;4.50;99.90
16968;DHT22;64862;54.398;10.126;2024-03-08T23:58:55;4.50;99.90
